Terminal Aerodrome Forecast
Issued by NWS Shreveport, LA

Home | Current Version | Previous Version | Text Only | Print | Product List | Glossary On
Versions: 1 2 3 4 5 6 7 8 9 10 11 12 13 14 15 16 17 18 19 20
000
FTUS44 KSHV 301801 AAA
TAFMLU
TAF AMD
KMLU 301801Z 3018/0118 23010KT P6SM OVC090
      TEMPO 3018/3020 BKN015
     FM302000 22011G18KT P6SM BKN100
     FM302300 23010KT P6SM SKC
     FM010100 21004KT P6SM SKC
     FM010800 24008KT P6SM SKC
     FM011400 24015G21KT P6SM SKC=

USA.gov is the U.S. government's official web portal to all federal, state and local government web resources and services.